Time;durP1;ratioP1;P1;durP2;ratioP2;P2;SDS_P1;SDS_P2;PMS_P1;PMS_P2;Temp;Humidity;BMP_temperature;BMP_pressure;BME280_temperature;BME280_humidity;BME280_pressure;Samples;Min_cycle;Max_cycle;Signal;HPM_P1;HPM_P2
2023/12/09 00:02:22;;;;;;;7.17;5.40;;;7.30;99.90;;;;;;4991110;28;20259;-70
2023/12/09 00:04:48;;;;;;;12.07;4.87;;;7.30;99.90;;;;;;4991012;28;20220;-70
2023/12/09 00:07:13;;;;;;;9.20;5.20;;;7.20;99.90;;;;;;4990863;28;20247;-70
2023/12/09 00:09:39;;;;;;;11.60;5.20;;;7.20;99.90;;;;;;4990770;28;20176;-70
2023/12/09 00:12:05;;;;;;;7.07;5.27;;;7.20;99.90;;;;;;4991128;28;20173;-70
2023/12/09 00:14:30;;;;;;;7.40;4.77;;;7.20;99.90;;;;;;4991040;28;20180;-70
2023/12/09 00:16:56;;;;;;;8.73;5.03;;;7.20;99.90;;;;;;4990807;28;20204;-70
2023/12/09 00:19:21;;;;;;;6.93;5.07;;;7.20;99.90;;;;;;4990531;28;20292;-69
2023/12/09 00:21:47;;;;;;;8.20;5.00;;;7.20;99.90;;;;;;4990608;28;20675;-70
2023/12/09 00:24:13;;;;;;;10.03;5.13;;;7.20;99.90;;;;;;4991036;28;20307;-69
2023/12/09 00:26:38;;;;;;;5.63;5.03;;;7.10;99.90;;;;;;4991164;28;20177;-69
2023/12/09 00:29:04;;;;;;;9.37;4.77;;;7.10;99.90;;;;;;4991204;28;20232;-70
2023/12/09 00:31:29;;;;;;;7.50;5.20;;;7.10;99.90;;;;;;4990728;28;20659;-70
2023/12/09 00:33:55;;;;;;;15.97;5.47;;;7.00;99.90;;;;;;4991017;28;20204;-70
2023/12/09 00:36:21;;;;;;;10.33;4.87;;;7.10;99.90;;;;;;4990837;28;20189;-70
2023/12/09 00:38:46;;;;;;;11.20;4.83;;;7.10;99.90;;;;;;4991118;28;20181;-70
2023/12/09 00:41:12;;;;;;;8.80;4.93;;;7.20;99.90;;;;;;4990786;28;20220;-70
2023/12/09 00:43:38;;;;;;;11.57;4.87;;;7.20;99.90;;;;;;4990630;28;20255;-70
2023/12/09 00:46:03;;;;;;;5.87;5.27;;;7.20;99.90;;;;;;4990585;28;20285;-70
2023/12/09 00:48:29;;;;;;;9.30;4.87;;;7.20;99.90;;;;;;4991016;28;20624;-70
2023/12/09 00:50:54;;;;;;;6.10;5.00;;;7.20;99.90;;;;;;4990804;28;20693;-69
2023/12/09 00:53:20;;;;;;;11.07;4.87;;;7.10;99.90;;;;;;4990490;28;20208;-70
2023/12/09 00:55:45;;;;;;;11.07;5.47;;;7.20;99.90;;;;;;4993485;28;20204;-70
2023/12/09 00:58:11;;;;;;;10.33;5.57;;;7.10;99.90;;;;;;4994057;28;20648;-70
2023/12/09 01:00:37;;;;;;;5.40;4.90;;;7.10;99.90;;;;;;4994171;28;20196;-70
2023/12/09 01:03:02;;;;;;;6.73;5.13;;;7.00;99.90;;;;;;4993563;28;20208;-70
2023/12/09 01:05:28;;;;;;;6.77;5.17;;;7.00;99.90;;;;;;4976567;28;20208;-69
2023/12/09 01:07:53;;;;;;;5.73;4.67;;;7.00;99.90;;;;;;4993808;28;20240;-70
2023/12/09 01:10:19;;;;;;;13.57;5.40;;;7.00;99.90;;;;;;4994014;28;20177;-70
2023/12/09 01:12:44;;;;;;;11.33;5.30;;;7.00;99.90;;;;;;4976170;28;20193;-70
2023/12/09 01:15:10;;;;;;;7.07;5.43;;;7.00;99.90;;;;;;4993965;28;20187;-70
2023/12/09 01:17:36;;;;;;;12.13;5.37;;;7.10;99.90;;;;;;4994327;28;20520;-70
2023/12/09 01:20:01;;;;;;;12.07;5.60;;;7.10;99.90;;;;;;4993858;28;20599;-69
2023/12/09 01:22:27;;;;;;;7.43;4.93;;;7.10;99.90;;;;;;4993418;28;20212;-70
2023/12/09 01:24:52;;;;;;;7.90;5.17;;;7.20;99.90;;;;;;4993700;28;20205;-70
2023/12/09 01:27:18;;;;;;;10.60;5.60;;;7.20;99.90;;;;;;4993261;28;20176;-70
2023/12/09 01:29:44;;;;;;;8.23;5.00;;;7.30;99.90;;;;;;4993799;28;20181;-70
2023/12/09 01:32:09;;;;;;;12.60;5.23;;;7.30;99.90;;;;;;4994001;28;20180;-70
2023/12/09 01:34:38;;;;;;;8.00;5.03;;;7.30;99.90;;;;;;4993754;28;20181;-70
2023/12/09 01:37:03;;;;;;;11.73;5.20;;;7.30;99.90;;;;;;4993340;28;20180;-70
2023/12/09 01:39:29;;;;;;;8.60;4.43;;;7.40;99.90;;;;;;4993341;28;20593;-70
2023/12/09 01:41:56;;;;;;;11.37;4.93;;;7.30;99.90;;;;;;4993263;28;20177;-70
2023/12/09 01:44:21;;;;;;;9.20;5.20;;;7.30;99.90;;;;;;4993423;28;20262;-70
2023/12/09 01:46:47;;;;;;;9.03;4.90;;;7.20;99.90;;;;;;4993428;28;20177;-69
2023/12/09 01:49:13;;;;;;;6.87;4.70;;;7.10;99.90;;;;;;4992905;28;20176;-69
2023/12/09 01:51:41;;;;;;;8.20;4.43;;;7.00;99.90;;;;;;4974101;28;20224;-70
2023/12/09 01:54:07;;;;;;;8.77;5.00;;;6.90;99.90;;;;;;4973957;28;20202;-70
2023/12/09 01:56:33;;;;;;;6.70;4.80;;;6.80;99.90;;;;;;4973985;28;20174;-70
2023/12/09 01:58:59;;;;;;;12.80;4.97;;;6.60;99.90;;;;;;4992989;28;20202;-70
2023/12/09 02:01:25;;;;;;;11.77;5.30;;;6.60;99.90;;;;;;4993240;28;20184;-70
2023/12/09 02:03:52;;;;;;;7.20;5.60;;;6.60;99.90;;;;;;4992718;28;20212;-69
2023/12/09 02:06:18;;;;;;;13.30;4.97;;;6.50;99.90;;;;;;4992159;28;20177;-69
2023/12/09 02:08:43;;;;;;;10.37;5.53;;;6.30;99.90;;;;;;4993262;28;20554;-70
2023/12/09 02:11:23;;;;;;;7.80;4.83;;;6.30;99.90;;;;;;4993328;28;20180;-69
2023/12/09 02:13:57;;;;;;;8.77;5.20;;;6.20;99.90;;;;;;4992938;28;20212;-70
2023/12/09 02:16:36;;;;;;;7.93;5.07;;;6.10;99.90;;;;;;4993002;28;20220;-70
2023/12/09 02:19:04;;;;;;;8.87;5.17;;;6.10;99.90;;;;;;4992845;28;20191;-69
2023/12/09 02:21:30;;;;;;;9.90;5.33;;;6.00;99.90;;;;;;4992635;28;20185;-70
2023/12/09 02:23:55;;;;;;;7.50;5.73;;;5.90;99.90;;;;;;4974732;28;20726;-70
2023/12/09 02:26:26;;;;;;;15.03;5.90;;;5.90;99.90;;;;;;4992457;28;20173;-69
2023/12/09 02:29:00;;;;;;;16.07;6.00;;;5.90;99.90;;;;;;4992878;28;20252;-69
2023/12/09 02:31:29;;;;;;;10.57;5.63;;;5.90;99.90;;;;;;4992006;28;20180;-70
2023/12/09 02:33:57;;;;;;;8.43;4.90;;;5.90;99.90;;;;;;4992271;28;20204;-70
2023/12/09 02:36:24;;;;;;;11.37;5.57;;;5.80;99.90;;;;;;4992294;28;20553;-70
2023/12/09 02:38:51;;;;;;;8.87;5.17;;;5.80;99.90;;;;;;4973170;28;20188;-70
2023/12/09 02:41:18;;;;;;;9.37;5.57;;;5.80;99.90;;;;;;4972942;28;20264;-69
2023/12/09 02:43:45;;;;;;;8.83;5.40;;;5.80;99.90;;;;;;5073698;22;20353;-86
2023/12/09 02:46:14;;;;;;;9.73;5.70;;;5.80;99.90;;;;;;5041770;28;20223;-85
2023/12/09 02:48:40;;;;;;;10.23;7.43;;;5.70;99.90;;;;;;5047489;28;20245;-86
2023/12/09 02:51:07;;;;;;;7.93;6.13;;;5.70;99.90;;;;;;5018073;28;20191;-86
2023/12/09 02:53:35;;;;;;;10.90;6.93;;;5.70;99.90;;;;;;5018114;28;20254;-86
2023/12/09 02:56:00;;;;;;;12.73;6.70;;;5.90;99.90;;;;;;5018465;28;20290;-86
2023/12/09 02:58:26;;;;;;;16.83;6.83;;;5.80;99.90;;;;;;5017976;28;20222;-86
2023/12/09 03:00:51;;;;;;;17.27;6.93;;;5.60;99.90;;;;;;5033867;28;20287;-86
2023/12/09 03:03:17;;;;;;;14.57;7.23;;;5.70;99.90;;;;;;5034538;28;20187;-86
2023/12/09 03:05:44;;;;;;;13.73;7.30;;;5.70;99.90;;;;;;5016989;28;20278;-86
2023/12/09 03:08:09;;;;;;;6.67;5.40;;;5.70;99.90;;;;;;5035043;28;20187;-86
2023/12/09 03:10:35;;;;;;;15.87;5.90;;;5.80;99.90;;;;;;5017472;28;20177;-86
2023/12/09 03:13:00;;;;;;;8.00;5.77;;;6.00;99.90;;;;;;5039432;28;20194;-86
2023/12/09 03:15:26;;;;;;;11.27;5.83;;;5.60;99.90;;;;;;5035999;28;20194;-86
2023/12/09 03:17:53;;;;;;;13.77;6.00;;;5.60;99.90;;;;;;5016345;28;20199;-86
2023/12/09 03:20:20;;;;;;;6.27;5.67;;;5.50;99.90;;;;;;5035053;28;20258;-86
2023/12/09 03:22:46;;;;;;;9.67;5.70;;;5.50;99.90;;;;;;5016967;28;20190;-86
2023/12/09 03:25:12;;;;;;;12.10;5.30;;;5.50;99.90;;;;;;5034644;28;20716;-86
2023/12/09 03:27:37;;;;;;;8.47;5.70;;;5.30;99.90;;;;;;5016115;28;20196;-86
2023/12/09 03:30:03;;;;;;;13.40;6.10;;;5.40;99.90;;;;;;5016639;28;20180;-86
2023/12/09 03:32:29;;;;;;;10.10;5.40;;;5.30;99.90;;;;;;5016129;28;20203;-86
2023/12/09 03:34:56;;;;;;;10.67;5.40;;;5.30;99.90;;;;;;5017248;28;20654;-86
2023/12/09 03:37:21;;;;;;;10.47;5.20;;;5.20;99.90;;;;;;5017690;28;20204;-86
2023/12/09 03:39:47;;;;;;;10.23;6.97;;;5.20;99.90;;;;;;5017309;28;20186;-86
2023/12/09 03:42:14;;;;;;;9.80;6.00;;;5.20;99.90;;;;;;5017061;28;20179;-86
2023/12/09 03:44:40;;;;;;;9.17;5.70;;;5.20;99.90;;;;;;5017669;28;20211;-87
2023/12/09 03:47:06;;;;;;;9.13;5.63;;;5.20;99.90;;;;;;5017673;28;20225;-86
2023/12/09 03:49:33;;;;;;;9.17;6.03;;;5.10;99.90;;;;;;5035651;28;20172;-85
2023/12/09 03:51:58;;;;;;;8.97;5.90;;;5.10;99.90;;;;;;5016899;28;20179;-86
2023/12/09 03:54:24;;;;;;;10.03;5.97;;;5.40;99.90;;;;;;5016750;28;20182;-86
2023/12/09 03:56:50;;;;;;;13.97;6.70;;;5.10;99.90;;;;;;5015511;28;20234;-86
2023/12/09 03:59:15;;;;;;;9.83;5.70;;;5.00;99.90;;;;;;5016210;28;20183;-87
2023/12/09 04:01:48;;;;;;;17.40;6.07;;;5.00;99.90;;;;;;5015816;28;20245;-85
2023/12/09 04:04:16;;;;;;;13.17;6.53;;;4.90;99.90;;;;;;5033466;28;20377;-87
2023/12/09 04:06:42;;;;;;;8.37;5.87;;;5.10;99.90;;;;;;5033999;28;20306;-85
2023/12/09 04:09:09;;;;;;;15.67;6.47;;;5.00;99.90;;;;;;5016269;28;20179;-86
2023/12/09 04:11:35;;;;;;;9.70;6.73;;;5.00;99.90;;;;;;5015469;28;20194;-85
2023/12/09 04:14:01;;;;;;;14.43;6.00;;;4.90;99.90;;;;;;5015564;28;20195;-86
2023/12/09 04:16:27;;;;;;;13.67;6.17;;;4.90;99.90;;;;;;5015223;28;20203;-86
2023/12/09 04:18:54;;;;;;;10.67;6.30;;;5.20;99.90;;;;;;5016190;28;20180;-86
2023/12/09 04:21:20;;;;;;;13.13;6.13;;;4.80;99.90;;;;;;5017091;28;20207;-85
2023/12/09 04:23:46;;;;;;;9.33;7.30;;;4.70;99.90;;;;;;5015647;28;20276;-85
2023/12/09 04:26:11;;;;;;;10.20;6.83;;;4.80;99.90;;;;;;5033968;28;20624;-86
2023/12/09 04:28:37;;;;;;;11.10;6.70;;;4.70;99.90;;;;;;5017133;28;20183;-86
2023/12/09 04:31:03;;;;;;;14.47;6.53;;;4.80;99.90;;;;;;5019774;28;20278;-86
2023/12/09 04:33:29;;;;;;;11.63;6.80;;;4.90;99.90;;;;;;5020472;28;20191;-86
2023/12/09 04:35:55;;;;;;;9.70;7.10;;;5.00;99.90;;;;;;5021164;28;20182;-86
2023/12/09 04:38:21;;;;;;;11.17;6.33;;;5.00;99.90;;;;;;5020708;28;20168;-85
2023/12/09 04:40:46;;;;;;;9.87;6.60;;;5.10;99.90;;;;;;5019782;28;20263;-86
2023/12/09 04:43:12;;;;;;;9.53;6.27;;;5.10;99.90;;;;;;5020419;28;20547;-90
2023/12/09 04:45:39;;;;;;;14.97;6.50;;;4.60;99.90;;;;;;5038098;28;20207;-85
2023/12/09 04:48:05;;;;;;;12.63;7.23;;;5.10;99.90;;;;;;5018975;28;20552;-86
2023/12/09 04:50:31;;;;;;;10.20;7.10;;;5.10;99.90;;;;;;5018668;28;20256;-86
2023/12/09 04:52:56;;;;;;;11.10;6.70;;;5.10;99.90;;;;;;5036333;28;20943;-86
2023/12/09 04:55:22;;;;;;;14.60;7.17;;;5.00;99.90;;;;;;5018838;28;20188;-86
2023/12/09 04:57:49;;;;;;;14.80;7.30;;;5.10;99.90;;;;;;5018920;28;20200;-86
2023/12/09 05:00:15;;;;;;;13.13;7.50;;;4.90;99.90;;;;;;5018781;28;20182;-86
2023/12/09 05:02:41;;;;;;;17.17;7.33;;;4.90;99.90;;;;;;5018587;28;20191;-86
2023/12/09 05:05:06;;;;;;;17.23;7.57;;;4.90;99.90;;;;;;5036284;28;20203;-85
2023/12/09 05:07:32;;;;;;;14.73;8.67;;;4.80;99.90;;;;;;5018698;28;20203;-85
2023/12/09 05:09:58;;;;;;;10.67;7.77;;;4.90;99.90;;;;;;5019569;28;20175;-86
2023/12/09 05:12:23;;;;;;;13.97;7.30;;;4.70;99.90;;;;;;5018287;28;20655;-86
2023/12/09 05:14:49;;;;;;;17.67;8.77;;;4.70;99.90;;;;;;5018587;28;20203;-86
2023/12/09 05:17:15;;;;;;;9.63;8.43;;;4.60;99.90;;;;;;5019501;28;20203;-86
2023/12/09 05:19:41;;;;;;;14.87;8.37;;;4.80;99.90;;;;;;5018918;28;20211;-85
2023/12/09 05:22:07;;;;;;;22.43;9.00;;;4.50;99.90;;;;;;5035013;28;20649;-87
2023/12/09 05:24:32;;;;;;;18.43;8.80;;;4.50;99.90;;;;;;5018923;28;20243;-86
2023/12/09 05:26:58;;;;;;;20.33;8.87;;;4.50;99.90;;;;;;5018946;28;20277;-86
2023/12/09 05:29:24;;;;;;;14.27;8.87;;;4.50;99.90;;;;;;5018235;28;20168;-86
2023/12/09 05:31:49;;;;;;;14.93;9.30;;;4.50;99.90;;;;;;5017912;28;20171;-85
2023/12/09 05:34:16;;;;;;;18.00;9.23;;;4.40;99.90;;;;;;5017844;28;20187;-86
2023/12/09 05:36:42;;;;;;;13.13;9.87;;;4.40;99.90;;;;;;5017998;28;20215;-86
2023/12/09 05:39:08;;;;;;;13.93;10.07;;;4.50;99.90;;;;;;5017533;28;20194;-86
2023/12/09 05:41:33;;;;;;;19.57;10.00;;;4.50;99.90;;;;;;5017640;28;20207;-86
2023/12/09 05:43:59;;;;;;;17.70;9.97;;;4.40;99.90;;;;;;5035407;28;20230;-85
2023/12/09 05:46:24;;;;;;;17.33;10.23;;;4.40;99.90;;;;;;5035597;28;20245;-86
2023/12/09 05:48:50;;;;;;;12.87;8.83;;;4.40;99.90;;;;;;5035217;28;20245;-85
2023/12/09 05:51:16;;;;;;;15.47;9.43;;;4.50;99.90;;;;;;5035671;28;20175;-86
2023/12/09 05:53:41;;;;;;;16.53;9.50;;;4.30;99.90;;;;;;5018183;28;20176;-86
2023/12/09 05:56:11;;;;;;;14.63;9.47;;;4.30;99.90;;;;;;5017407;28;20337;-86
2023/12/09 05:58:39;;;;;;;14.57;9.03;;;4.40;99.90;;;;;;5037975;28;20193;-86
2023/12/09 06:01:05;;;;;;;15.73;9.53;;;4.70;99.90;;;;;;5018677;28;20213;-86
2023/12/09 06:03:31;;;;;;;16.90;9.63;;;4.40;99.90;;;;;;5017404;28;20184;-86
2023/12/09 06:05:57;;;;;;;15.83;10.23;;;4.40;99.90;;;;;;5019481;28;20591;-86
2023/12/09 06:08:23;;;;;;;20.30;10.43;;;4.40;99.90;;;;;;5020589;28;20183;-86
2023/12/09 06:10:49;;;;;;;16.77;9.47;;;4.50;99.90;;;;;;5020784;28;20585;-85
2023/12/09 06:13:15;;;;;;;14.40;9.57;;;4.40;99.90;;;;;;5018975;28;20213;-86
2023/12/09 06:15:41;;;;;;;13.37;9.50;;;4.30;99.90;;;;;;5035547;28;20194;-86
2023/12/09 06:18:06;;;;;;;12.10;8.97;;;4.30;99.90;;;;;;5017545;28;20180;-85
2023/12/09 06:20:32;;;;;;;13.97;9.07;;;4.30;99.90;;;;;;5017429;28;20171;-86
2023/12/09 06:22:58;;;;;;;15.57;8.70;;;4.30;99.90;;;;;;5017860;28;20228;-86
2023/12/09 06:25:23;;;;;;;15.33;9.27;;;4.40;99.90;;;;;;5018177;28;20203;-86
2023/12/09 06:27:50;;;;;;;15.27;8.97;;;4.30;99.90;;;;;;5019103;28;20199;-85
2023/12/09 06:30:16;;;;;;;19.80;8.90;;;4.30;99.90;;;;;;5017387;28;20257;-85
2023/12/09 06:32:43;;;;;;;16.07;8.80;;;4.20;99.90;;;;;;5017293;28;20163;-86
2023/12/09 06:35:09;;;;;;;12.23;9.57;;;4.10;99.90;;;;;;5035056;28;20179;-86
2023/12/09 06:37:34;;;;;;;10.20;8.50;;;4.30;99.90;;;;;;5018020;28;20199;-85
2023/12/09 06:40:00;;;;;;;18.80;9.80;;;4.20;99.90;;;;;;5018874;28;20217;-86
2023/12/09 06:42:27;;;;;;;17.97;9.13;;;4.40;99.90;;;;;;5021051;28;20175;-87
2023/12/09 06:44:52;;;;;;;9.23;8.13;;;4.40;99.90;;;;;;5018887;28;20207;-85
2023/12/09 06:47:19;;;;;;;11.03;8.30;;;4.10;99.90;;;;;;5038263;28;20210;-87
2023/12/09 06:49:44;;;;;;;11.17;7.77;;;4.30;99.90;;;;;;5021247;28;20175;-88
2023/12/09 06:52:10;;;;;;;8.87;7.87;;;4.20;99.90;;;;;;5019640;28;20176;-89
2023/12/09 06:54:35;;;;;;;11.77;8.53;;;4.60;99.90;;;;;;5018734;28;20175;-86
2023/12/09 06:57:01;;;;;;;11.93;8.63;;;4.20;99.90;;;;;;5033392;28;20560;-85
2023/12/09 06:59:27;;;;;;;10.33;7.73;;;4.00;99.90;;;;;;5016152;28;20241;-85
2023/12/09 07:01:57;;;;;;;15.03;8.03;;;4.00;99.90;;;;;;5017409;28;20186;-86
2023/12/09 07:04:23;;;;;;;9.43;8.37;;;4.00;99.90;;;;;;5034734;28;20191;-86
2023/12/09 07:06:48;;;;;;;13.00;8.70;;;4.10;99.90;;;;;;5017414;28;20267;-86
2023/12/09 07:09:14;;;;;;;13.77;8.37;;;3.90;99.90;;;;;;5016969;28;20180;-86
2023/12/09 07:11:39;;;;;;;8.53;7.33;;;4.00;99.90;;;;;;5035371;28;20178;-86
2023/12/09 07:14:05;;;;;;;12.87;7.70;;;4.10;99.90;;;;;;5017278;28;20182;-86
2023/12/09 07:16:31;;;;;;;12.57;8.00;;;4.10;99.90;;;;;;5023280;28;20195;-86
2023/12/09 07:19:00;;;;;;;8.07;7.27;;;4.10;99.90;;;;;;4998958;28;20176;-86
2023/12/09 07:21:29;;;;;;;9.97;8.43;;;4.10;99.90;;;;;;4998721;28;20200;-86
2023/12/09 07:23:55;;;;;;;10.60;8.70;;;4.10;99.90;;;;;;4998872;28;20275;-86
2023/12/09 07:26:21;;;;;;;11.80;8.50;;;4.20;99.90;;;;;;5012873;28;20423;-86
2023/12/09 07:28:47;;;;;;;14.00;9.20;;;4.30;99.90;;;;;;5017239;28;20171;-85
2023/12/09 07:31:13;;;;;;;9.77;7.77;;;4.30;99.90;;;;;;5016382;28;20202;-85
2023/12/09 07:33:39;;;;;;;9.87;7.57;;;4.40;99.90;;;;;;5016574;28;20171;-85
2023/12/09 07:36:05;;;;;;;12.07;8.07;;;4.40;99.90;;;;;;5016780;28;20561;-85
2023/12/09 07:38:32;;;;;;;12.43;7.53;;;4.50;99.90;;;;;;5017699;28;20569;-86
2023/12/09 07:40:58;;;;;;;18.67;7.20;;;4.40;99.90;;;;;;5019281;28;20183;-85
2023/12/09 07:43:23;;;;;;;8.53;7.30;;;4.50;99.90;;;;;;5018311;28;20313;-86
2023/12/09 07:45:49;;;;;;;10.40;7.23;;;4.40;99.90;;;;;;5016424;28;20199;-86
2023/12/09 07:48:15;;;;;;;10.73;7.63;;;4.70;99.90;;;;;;5018687;28;20179;-86
2023/12/09 07:50:40;;;;;;;12.43;7.67;;;4.50;99.90;;;;;;5018672;28;20198;-86
2023/12/09 07:53:06;;;;;;;9.73;7.43;;;4.50;99.90;;;;;;5019086;28;20213;-86
2023/12/09 07:55:32;;;;;;;12.23;7.50;;;4.50;99.90;;;;;;5037374;28;20238;-85
2023/12/09 07:57:58;;;;;;;13.63;7.67;;;4.60;99.90;;;;;;5037520;28;20199;-86
2023/12/09 08:00:28;;;;;;;12.93;7.43;;;4.80;99.90;;;;;;5018467;28;20298;-85
2023/12/09 08:02:57;;;;;;;12.67;7.73;;;4.60;99.90;;;;;;5019913;28;20188;-84
2023/12/09 08:05:23;;;;;;;10.93;7.70;;;4.90;99.90;;;;;;5023307;28;20257;-86
2023/12/09 08:07:49;;;;;;;10.73;7.63;;;4.70;99.90;;;;;;5023375;28;20198;-86
2023/12/09 08:10:15;;;;;;;16.53;8.17;;;4.80;99.90;;;;;;5010570;28;20179;-85
2023/12/09 08:12:40;;;;;;;11.20;8.50;;;4.80;99.90;;;;;;5002405;28;20184;-85
2023/12/09 08:15:06;;;;;;;13.93;8.30;;;4.90;99.90;;;;;;5019580;28;20172;-86
2023/12/09 08:17:32;;;;;;;14.90;8.10;;;5.00;99.90;;;;;;5019560;28;20196;-85
2023/12/09 08:19:58;;;;;;;9.10;7.30;;;5.30;99.90;;;;;;4984661;28;20318;-85
2023/12/09 08:22:23;;;;;;;14.47;8.03;;;5.20;99.90;;;;;;5034865;28;20191;-87
2023/12/09 08:24:49;;;;;;;12.30;7.50;;;5.30;99.90;;;;;;5037942;28;20640;-86
2023/12/09 08:27:15;;;;;;;13.27;7.73;;;5.40;99.90;;;;;;5020465;28;20200;-85
2023/12/09 08:29:40;;;;;;;15.90;8.23;;;5.40;99.90;;;;;;5020914;28;20176;-86
2023/12/09 08:32:06;;;;;;;10.23;7.80;;;5.50;99.90;;;;;;5020215;28;20183;-85
2023/12/09 08:34:32;;;;;;;12.63;7.03;;;5.70;99.90;;;;;;5020416;28;20184;-86
2023/12/09 08:36:57;;;;;;;9.83;7.63;;;5.70;99.90;;;;;;5022616;28;20215;-85
2023/12/09 08:39:23;;;;;;;18.40;8.17;;;5.70;99.90;;;;;;5023259;28;20234;-85
2023/12/09 08:41:49;;;;;;;15.67;7.80;;;5.90;99.90;;;;;;5020601;28;20180;-85
2023/12/09 08:44:14;;;;;;;11.53;8.00;;;5.80;99.90;;;;;;5027855;28;20234;-86
2023/12/09 08:46:40;;;;;;;12.53;7.37;;;5.90;99.90;;;;;;5026050;28;20202;-86
2023/12/09 08:49:07;;;;;;;16.47;7.60;;;6.00;99.90;;;;;;5020408;28;20620;-86
2023/12/09 08:51:44;;;;;;;15.60;7.23;;;5.90;99.90;;;;;;5020396;28;20250;-86
2023/12/09 08:54:10;;;;;;;19.00;7.80;;;6.10;99.90;;;;;;5038013;28;20258;-86
2023/12/09 08:56:35;;;;;;;11.53;6.83;;;6.00;99.90;;;;;;5020603;28;20273;-83
2023/12/09 08:59:01;;;;;;;16.43;7.13;;;6.10;99.90;;;;;;5025214;28;20175;-85
2023/12/09 09:01:27;;;;;;;14.37;7.77;;;6.20;99.90;;;;;;5026810;28;20175;-85
2023/12/09 09:03:52;;;;;;;8.67;7.50;;;6.30;99.90;;;;;;5038434;28;20258;-85
2023/12/09 09:06:18;;;;;;;12.23;7.97;;;6.30;99.90;;;;;;5026647;28;20230;-85
2023/12/09 09:08:44;;;;;;;18.60;7.73;;;6.40;99.90;;;;;;5023857;28;20599;-85
2023/12/09 09:11:11;;;;;;;13.77;8.30;;;6.40;99.90;;;;;;5023481;28;20266;-86
2023/12/09 09:13:38;;;;;;;11.40;7.50;;;6.50;99.90;;;;;;5023958;28;20266;-85
2023/12/09 09:16:04;;;;;;;22.03;8.17;;;6.50;99.90;;;;;;5041459;28;20196;-89
2023/12/09 09:18:30;;;;;;;13.60;7.23;;;6.50;99.90;;;;;;5022594;28;20175;-85
2023/12/09 09:20:57;;;;;;;12.00;8.03;;;6.70;99.90;;;;;;5038331;28;20172;-85
2023/12/09 09:23:22;;;;;;;12.93;7.90;;;6.80;99.90;;;;;;5038321;28;20195;-86
2023/12/09 09:25:48;;;;;;;15.73;8.30;;;6.90;99.90;;;;;;5037909;28;20261;-85
2023/12/09 09:28:14;;;;;;;13.77;7.03;;;7.10;99.90;;;;;;5019524;28;20180;-85
2023/12/09 09:30:40;;;;;;;16.30;9.57;;;7.10;99.90;;;;;;5019350;28;20179;-85
2023/12/09 09:33:06;;;;;;;9.87;8.23;;;7.10;99.90;;;;;;5019352;28;20178;-85
2023/12/09 09:35:33;;;;;;;15.30;7.57;;;7.30;99.90;;;;;;5021447;28;20233;-86
2023/12/09 09:37:59;;;;;;;11.73;7.30;;;7.40;99.90;;;;;;5020342;28;20203;-86
2023/12/09 09:40:24;;;;;;;15.97;12.00;;;7.40;99.90;;;;;;5037563;28;20586;-85
2023/12/09 09:42:54;;;;;;;16.47;12.60;;;7.60;99.90;;;;;;5019414;28;20194;-85
2023/12/09 09:45:25;;;;;;;13.40;8.93;;;7.50;99.90;;;;;;5040867;28;20265;-86
2023/12/09 09:47:53;;;;;;;11.93;8.07;;;7.80;99.90;;;;;;5019819;28;20206;-85
2023/12/09 09:50:26;;;;;;;13.70;7.77;;;7.70;99.90;;;;;;5038386;28;20168;-86
2023/12/09 09:52:53;;;;;;;11.20;7.33;;;7.70;99.90;;;;;;5019049;28;20198;-86
2023/12/09 09:55:22;;;;;;;19.37;8.43;;;7.90;99.90;;;;;;5018827;28;20176;-85
2023/12/09 09:57:49;;;;;;;13.63;7.90;;;7.80;99.90;;;;;;5018625;28;20459;-85
2023/12/09 10:00:16;;;;;;;13.93;9.30;;;7.90;99.90;;;;;;5018368;28;20172;-86
2023/12/09 10:02:45;;;;;;;12.87;9.43;;;7.90;99.90;;;;;;5018219;28;20206;-86
2023/12/09 10:05:12;;;;;;;14.33;7.80;;;7.90;99.90;;;;;;5018183;28;20578;-86
2023/12/09 10:07:39;;;;;;;20.70;10.43;;;8.00;99.90;;;;;;5017031;28;20199;-86
2023/12/09 10:10:07;;;;;;;14.90;10.00;;;8.00;99.90;;;;;;5018389;28;20175;-86
2023/12/09 10:12:34;;;;;;;14.43;8.23;;;8.10;99.90;;;;;;5017250;28;20262;-86
2023/12/09 10:15:01;;;;;;;23.43;11.13;;;8.10;99.90;;;;;;5035059;28;20179;-86
2023/12/09 10:17:27;;;;;;;13.97;9.33;;;8.20;99.90;;;;;;5017910;28;20306;-86
2023/12/09 10:20:01;;;;;;;13.83;8.10;;;8.40;99.90;;;;;;5017491;28;20171;-86
2023/12/09 10:22:27;;;;;;;14.40;7.03;;;8.60;99.90;;;;;;5017297;28;20197;-86
2023/12/09 10:24:55;;;;;;;15.23;7.07;;;8.90;99.90;;;;;;5016978;28;20674;-87
2023/12/09 10:27:22;;;;;;;7.57;5.80;;;9.20;99.90;;;;;;5016188;28;20412;-85
2023/12/09 10:29:57;;;;;;;9.93;6.23;;;9.50;99.90;;;;;;5017273;28;20194;-87
2023/12/09 10:32:25;;;;;;;12.43;5.67;;;9.70;99.90;;;;;;5017281;28;20167;-86
2023/12/09 10:34:51;;;;;;;6.63;4.90;;;9.90;99.90;;;;;;5016947;28;20558;-86
2023/12/09 10:37:18;;;;;;;8.97;4.70;;;10.10;99.90;;;;;;5000831;28;20195;-86
2023/12/09 10:39:48;;;;;;;6.57;4.57;;;10.20;99.90;;;;;;5034279;28;20536;-86
2023/12/09 10:42:14;;;;;;;7.30;4.57;;;10.30;99.90;;;;;;5016373;28;20175;-86
2023/12/09 10:44:42;;;;;;;11.73;4.90;;;10.10;99.90;;;;;;5034644;28;20211;-86
2023/12/09 10:47:07;;;;;;;16.43;4.60;;;10.10;99.90;;;;;;4999911;28;20209;-86
2023/12/09 10:49:34;;;;;;;7.40;4.83;;;9.90;99.90;;;;;;5016913;28;20250;-86
2023/12/09 10:52:00;;;;;;;12.67;5.67;;;9.90;99.90;;;;;;5016173;28;20239;-85
2023/12/09 10:54:26;;;;;;;14.83;5.87;;;9.90;99.90;;;;;;5015817;28;20211;-86
2023/12/09 10:56:52;;;;;;;8.97;5.07;;;9.80;99.90;;;;;;5034208;28;20286;-85
2023/12/09 10:59:19;;;;;;;8.20;4.53;;;9.70;99.90;;;;;;5015670;28;20255;-85
2023/12/09 11:01:45;;;;;;;11.03;6.27;;;9.60;99.90;;;;;;5016433;28;20172;-86
2023/12/09 11:04:15;;;;;;;18.07;6.20;;;9.50;99.90;;;;;;5016200;28;20221;-86
2023/12/09 11:06:45;;;;;;;12.67;5.50;;;9.40;99.90;;;;;;5034431;28;20195;-86
2023/12/09 11:09:13;;;;;;;12.80;5.20;;;9.30;99.90;;;;;;5019230;28;20253;-86
2023/12/09 11:11:41;;;;;;;9.20;4.57;;;9.20;99.90;;;;;;5033622;28;20393;-87
2023/12/09 11:14:09;;;;;;;10.93;4.80;;;9.30;99.90;;;;;;5015694;28;20283;-87
2023/12/09 11:16:42;;;;;;;14.33;5.17;;;9.20;99.90;;;;;;5015266;28;20279;-87
2023/12/09 11:19:16;;;;;;;10.93;5.27;;;9.10;99.90;;;;;;5015796;28;20852;-86
2023/12/09 11:21:46;;;;;;;14.30;4.73;;;9.10;99.90;;;;;;5016071;28;20722;-86
2023/12/09 11:24:13;;;;;;;12.03;5.63;;;9.10;99.90;;;;;;5016050;28;20218;-88
2023/12/09 11:26:41;;;;;;;10.00;4.80;;;9.10;99.90;;;;;;5016260;28;20245;-87
2023/12/09 11:29:09;;;;;;;12.27;4.80;;;9.10;99.90;;;;;;5013052;28;20183;-85
2023/12/09 11:31:43;;;;;;;8.37;4.20;;;9.10;99.90;;;;;;5020289;28;20199;-86
2023/12/09 11:34:11;;;;;;;10.10;4.40;;;9.00;99.90;;;;;;5027017;28;20182;-87
2023/12/09 11:36:38;;;;;;;7.20;4.00;;;9.10;99.90;;;;;;5020136;28;20203;-87
2023/12/09 11:39:10;;;;;;;10.47;4.40;;;9.10;99.90;;;;;;5020052;28;20222;-86
2023/12/09 11:41:40;;;;;;;10.93;4.33;;;9.00;99.90;;;;;;5042472;28;20259;-87
2023/12/09 11:44:08;;;;;;;12.50;4.37;;;8.90;99.90;;;;;;5015816;28;20210;-87
2023/12/09 11:46:36;;;;;;;14.10;4.50;;;8.90;99.90;;;;;;5024640;28;20206;-86
2023/12/09 11:49:03;;;;;;;9.23;4.17;;;9.00;99.90;;;;;;5018658;28;20179;-86
2023/12/09 11:51:29;;;;;;;6.40;3.80;;;8.90;99.90;;;;;;5017925;28;20180;-85
2023/12/09 11:53:57;;;;;;;9.27;4.57;;;8.90;99.90;;;;;;5035657;28;20660;-86
2023/12/09 11:56:23;;;;;;;7.57;4.27;;;8.90;99.90;;;;;;5035379;28;20263;-85
2023/12/09 11:58:51;;;;;;;8.73;4.30;;;8.90;99.90;;;;;;5035985;28;20243;-89
2023/12/09 12:01:18;;;;;;;5.93;4.60;;;9.00;99.90;;;;;;5019207;28;20179;-87
2023/12/09 12:03:48;;;;;;;5.97;4.10;;;9.10;99.90;;;;;;5013732;28;20210;-87
2023/12/09 12:06:15;;;;;;;11.77;5.33;;;9.10;99.90;;;;;;5019529;28;20206;-86
2023/12/09 12:08:50;;;;;;;6.10;4.13;;;9.10;99.90;;;;;;5035741;28;20179;-86
2023/12/09 12:11:16;;;;;;;14.33;4.50;;;9.00;99.90;;;;;;5015774;28;20536;-84
2023/12/09 12:13:49;;;;;;;5.90;3.80;;;9.00;99.90;;;;;;5020272;28;20203;-87
2023/12/09 12:16:15;;;;;;;6.53;4.33;;;8.90;99.90;;;;;;5020739;28;20389;-85
2023/12/09 12:18:41;;;;;;;6.67;4.20;;;8.90;99.90;;;;;;5036467;28;20168;-85
2023/12/09 12:21:07;;;;;;;5.73;4.50;;;8.80;99.90;;;;;;5017726;28;20532;-85
2023/12/09 12:23:33;;;;;;;9.43;4.70;;;8.80;99.90;;;;;;5018351;28;20172;-84
2023/12/09 12:25:59;;;;;;;5.47;4.10;;;8.70;99.90;;;;;;5037234;28;20202;-84
2023/12/09 12:28:26;;;;;;;5.43;4.20;;;8.70;99.90;;;;;;5017474;28;20198;-84
2023/12/09 12:30:53;;;;;;;4.10;3.70;;;8.60;99.90;;;;;;5017077;28;20203;-85
2023/12/09 12:33:28;;;;;;;8.27;4.33;;;8.50;99.90;;;;;;5017056;28;20179;-84
2023/12/09 12:35:54;;;;;;;8.00;4.20;;;8.50;99.90;;;;;;5036930;28;20194;-85
2023/12/09 12:38:22;;;;;;;8.37;4.20;;;8.50;99.90;;;;;;5000177;28;20183;-85
2023/12/09 12:40:49;;;;;;;4.40;4.00;;;8.40;99.90;;;;;;5001492;28;20195;-84
2023/12/09 12:43:16;;;;;;;10.07;4.50;;;8.50;99.90;;;;;;5016700;28;20274;-85
2023/12/09 12:45:48;;;;;;;5.40;4.10;;;8.40;99.90;;;;;;5000777;28;20218;-84
2023/12/09 12:48:14;;;;;;;5.40;4.03;;;8.30;99.90;;;;;;5018647;28;20175;-84